sensor_id;sensor_type;location;lat;lon;timestamp;P1;durP1;ratioP1;P2;durP2;ratioP2
71637;SDS011;59485;43.542;-5.676;2022-08-24T00:01:08;5.93;;;1.30;;
71637;SDS011;59485;43.542;-5.676;2022-08-24T00:03:36;9.98;;;1.60;;
71637;SDS011;59485;43.542;-5.676;2022-08-24T00:06:03;7.83;;;1.53;;
71637;SDS011;59485;43.542;-5.676;2022-08-24T00:08:31;7.90;;;1.50;;
71637;SDS011;59485;43.542;-5.676;2022-08-24T00:10:57;7.35;;;1.80;;
71637;SDS011;59485;43.542;-5.676;2022-08-24T00:13:24;6.68;;;1.77;;
71637;SDS011;59485;43.542;-5.676;2022-08-24T00:15:50;6.27;;;1.27;;
71637;SDS011;59485;43.542;-5.676;2022-08-24T00:18:16;8.10;;;1.60;;
71637;SDS011;59485;43.542;-5.676;2022-08-24T00:20:42;7.43;;;1.92;;
71637;SDS011;59485;43.542;-5.676;2022-08-24T00:23:08;9.98;;;2.30;;
71637;SDS011;59485;43.542;-5.676;2022-08-24T00:25:34;7.73;;;1.60;;
71637;SDS011;59485;43.542;-5.676;2022-08-24T00:28:01;12.25;;;2.30;;
71637;SDS011;59485;43.542;-5.676;2022-08-24T00:30:27;8.00;;;1.90;;
71637;SDS011;59485;43.542;-5.676;2022-08-24T00:32:53;13.33;;;2.47;;
71637;SDS011;59485;43.542;-5.676;2022-08-24T00:35:19;8.73;;;2.20;;
71637;SDS011;59485;43.542;-5.676;2022-08-24T00:37:45;6.80;;;1.88;;
71637;SDS011;59485;43.542;-5.676;2022-08-24T00:40:14;9.60;;;2.33;;
71637;SDS011;59485;43.542;-5.676;2022-08-24T00:42:51;9.77;;;2.25;;
71637;SDS011;59485;43.542;-5.676;2022-08-24T00:45:18;8.98;;;2.55;;
71637;SDS011;59485;43.542;-5.676;2022-08-24T00:47:49;10.13;;;2.30;;
71637;SDS011;59485;43.542;-5.676;2022-08-24T00:50:33;10.60;;;2.97;;
71637;SDS011;59485;43.542;-5.676;2022-08-24T00:53:00;12.20;;;2.90;;
71637;SDS011;59485;43.542;-5.676;2022-08-24T00:55:35;6.60;;;2.28;;
71637;SDS011;59485;43.542;-5.676;2022-08-24T00:58:13;8.35;;;2.78;;
71637;SDS011;59485;43.542;-5.676;2022-08-24T01:00:45;9.53;;;2.53;;
71637;SDS011;59485;43.542;-5.676;2022-08-24T01:03:15;6.40;;;2.22;;
71637;SDS011;59485;43.542;-5.676;2022-08-24T01:05:42;7.97;;;2.83;;
71637;SDS011;59485;43.542;-5.676;2022-08-24T01:08:08;6.97;;;2.40;;
71637;SDS011;59485;43.542;-5.676;2022-08-24T01:10:40;8.70;;;2.58;;
71637;SDS011;59485;43.542;-5.676;2022-08-24T01:13:12;10.67;;;3.17;;
71637;SDS011;59485;43.542;-5.676;2022-08-24T01:15:42;11.35;;;2.40;;
71637;SDS011;59485;43.542;-5.676;2022-08-24T01:18:13;8.20;;;2.10;;
71637;SDS011;59485;43.542;-5.676;2022-08-24T01:21:07;9.05;;;2.00;;
71637;SDS011;59485;43.542;-5.676;2022-08-24T01:23:46;8.82;;;2.35;;
71637;SDS011;59485;43.542;-5.676;2022-08-24T01:26:20;11.57;;;2.10;;
71637;SDS011;59485;43.542;-5.676;2022-08-24T01:28:58;8.07;;;1.88;;
71637;SDS011;59485;43.542;-5.676;2022-08-24T01:31:28;6.63;;;1.77;;
71637;SDS011;59485;43.542;-5.676;2022-08-24T01:33:54;9.05;;;1.90;;
71637;SDS011;59485;43.542;-5.676;2022-08-24T01:38:46;11.37;;;2.23;;
71637;SDS011;59485;43.542;-5.676;2022-08-24T01:41:13;7.75;;;2.00;;
71637;SDS011;59485;43.542;-5.676;2022-08-24T01:43:38;6.87;;;2.37;;
71637;SDS011;59485;43.542;-5.676;2022-08-24T01:46:05;9.27;;;2.78;;
71637;SDS011;59485;43.542;-5.676;2022-08-24T01:48:31;8.60;;;1.87;;
71637;SDS011;59485;43.542;-5.676;2022-08-24T01:50:56;7.38;;;2.28;;
71637;SDS011;59485;43.542;-5.676;2022-08-24T01:53:22;6.33;;;1.93;;
71637;SDS011;59485;43.542;-5.676;2022-08-24T01:55:47;8.77;;;1.77;;
71637;SDS011;59485;43.542;-5.676;2022-08-24T01:58:13;9.57;;;1.70;;
71637;SDS011;59485;43.542;-5.676;2022-08-24T02:00:39;11.35;;;2.45;;
71637;SDS011;59485;43.542;-5.676;2022-08-24T02:03:05;8.43;;;1.80;;
71637;SDS011;59485;43.542;-5.676;2022-08-24T02:05:30;10.38;;;2.38;;
71637;SDS011;59485;43.542;-5.676;2022-08-24T02:07:57;10.00;;;2.33;;
71637;SDS011;59485;43.542;-5.676;2022-08-24T02:10:23;8.85;;;1.98;;
71637;SDS011;59485;43.542;-5.676;2022-08-24T02:12:48;8.18;;;2.25;;
71637;SDS011;59485;43.542;-5.676;2022-08-24T02:15:23;13.10;;;2.10;;
71637;SDS011;59485;43.542;-5.676;2022-08-24T02:18:00;6.35;;;1.90;;
71637;SDS011;59485;43.542;-5.676;2022-08-24T02:20:26;7.70;;;2.33;;
71637;SDS011;59485;43.542;-5.676;2022-08-24T02:22:53;8.70;;;1.77;;
71637;SDS011;59485;43.542;-5.676;2022-08-24T02:25:19;10.95;;;2.90;;
71637;SDS011;59485;43.542;-5.676;2022-08-24T02:27:45;8.05;;;2.28;;
71637;SDS011;59485;43.542;-5.676;2022-08-24T02:30:11;9.75;;;2.63;;
71637;SDS011;59485;43.542;-5.676;2022-08-24T02:32:37;7.83;;;2.93;;
71637;SDS011;59485;43.542;-5.676;2022-08-24T02:35:03;6.95;;;2.28;;
71637;SDS011;59485;43.542;-5.676;2022-08-24T02:37:29;11.35;;;2.67;;
71637;SDS011;59485;43.542;-5.676;2022-08-24T02:39:55;11.57;;;2.90;;
71637;SDS011;59485;43.542;-5.676;2022-08-24T02:42:20;9.30;;;2.00;;
71637;SDS011;59485;43.542;-5.676;2022-08-24T02:44:46;8.85;;;2.63;;
71637;SDS011;59485;43.542;-5.676;2022-08-24T02:47:12;9.60;;;1.87;;
71637;SDS011;59485;43.542;-5.676;2022-08-24T02:49:38;11.00;;;2.10;;
71637;SDS011;59485;43.542;-5.676;2022-08-24T02:52:03;9.53;;;2.30;;
71637;SDS011;59485;43.542;-5.676;2022-08-24T02:54:29;10.83;;;2.53;;
71637;SDS011;59485;43.542;-5.676;2022-08-24T02:56:54;9.37;;;1.80;;
71637;SDS011;59485;43.542;-5.676;2022-08-24T02:59:20;10.20;;;1.83;;
71637;SDS011;59485;43.542;-5.676;2022-08-24T03:01:48;8.17;;;1.50;;
71637;SDS011;59485;43.542;-5.676;2022-08-24T03:04:14;9.32;;;1.83;;
71637;SDS011;59485;43.542;-5.676;2022-08-24T03:06:41;9.23;;;1.80;;
71637;SDS011;59485;43.542;-5.676;2022-08-24T03:09:07;8.00;;;1.80;;
71637;SDS011;59485;43.542;-5.676;2022-08-24T03:11:33;11.52;;;2.63;;
71637;SDS011;59485;43.542;-5.676;2022-08-24T03:13:58;10.23;;;2.33;;
71637;SDS011;59485;43.542;-5.676;2022-08-24T03:16:25;8.23;;;2.43;;
71637;SDS011;59485;43.542;-5.676;2022-08-24T03:18:51;13.40;;;2.43;;
71637;SDS011;59485;43.542;-5.676;2022-08-24T03:21:17;10.82;;;2.22;;
71637;SDS011;59485;43.542;-5.676;2022-08-24T03:23:43;9.80;;;2.50;;
71637;SDS011;59485;43.542;-5.676;2022-08-24T03:26:08;10.30;;;2.33;;
71637;SDS011;59485;43.542;-5.676;2022-08-24T03:28:35;10.48;;;2.17;;
71637;SDS011;59485;43.542;-5.676;2022-08-24T03:31:00;11.47;;;2.47;;
71637;SDS011;59485;43.542;-5.676;2022-08-24T03:33:26;8.10;;;2.33;;
71637;SDS011;59485;43.542;-5.676;2022-08-24T03:35:51;10.00;;;2.25;;
71637;SDS011;59485;43.542;-5.676;2022-08-24T03:38:17;13.63;;;2.83;;
71637;SDS011;59485;43.542;-5.676;2022-08-24T03:40:43;11.55;;;2.70;;
71637;SDS011;59485;43.542;-5.676;2022-08-24T03:43:09;10.70;;;3.33;;
71637;SDS011;59485;43.542;-5.676;2022-08-24T03:45:54;9.68;;;2.53;;
71637;SDS011;59485;43.542;-5.676;2022-08-24T03:48:20;9.73;;;2.13;;
71637;SDS011;59485;43.542;-5.676;2022-08-24T03:50:45;10.23;;;2.97;;
71637;SDS011;59485;43.542;-5.676;2022-08-24T03:53:11;11.10;;;2.93;;
71637;SDS011;59485;43.542;-5.676;2022-08-24T03:55:37;10.93;;;2.42;;
71637;SDS011;59485;43.542;-5.676;2022-08-24T03:58:02;11.47;;;3.30;;
71637;SDS011;59485;43.542;-5.676;2022-08-24T04:00:28;12.38;;;3.28;;
71637;SDS011;59485;43.542;-5.676;2022-08-24T04:02:53;7.47;;;2.30;;
71637;SDS011;59485;43.542;-5.676;2022-08-24T04:05:19;14.67;;;3.23;;
71637;SDS011;59485;43.542;-5.676;2022-08-24T04:07:44;12.07;;;3.28;;
71637;SDS011;59485;43.542;-5.676;2022-08-24T04:10:10;7.57;;;2.70;;
71637;SDS011;59485;43.542;-5.676;2022-08-24T04:12:38;12.40;;;4.15;;
71637;SDS011;59485;43.542;-5.676;2022-08-24T04:15:04;12.43;;;3.47;;
71637;SDS011;59485;43.542;-5.676;2022-08-24T04:17:30;11.55;;;3.80;;
71637;SDS011;59485;43.542;-5.676;2022-08-24T04:19:55;8.07;;;2.53;;
71637;SDS011;59485;43.542;-5.676;2022-08-24T04:22:25;11.05;;;3.10;;
71637;SDS011;59485;43.542;-5.676;2022-08-24T04:24:53;12.48;;;3.83;;
71637;SDS011;59485;43.542;-5.676;2022-08-24T04:27:18;11.73;;;3.40;;
71637;SDS011;59485;43.542;-5.676;2022-08-24T04:29:44;10.77;;;2.80;;
71637;SDS011;59485;43.542;-5.676;2022-08-24T04:32:10;8.88;;;3.08;;
71637;SDS011;59485;43.542;-5.676;2022-08-24T04:34:35;9.57;;;3.10;;
71637;SDS011;59485;43.542;-5.676;2022-08-24T04:37:01;10.43;;;2.60;;
71637;SDS011;59485;43.542;-5.676;2022-08-24T04:39:27;10.40;;;3.77;;
71637;SDS011;59485;43.542;-5.676;2022-08-24T04:41:52;11.40;;;3.33;;
71637;SDS011;59485;43.542;-5.676;2022-08-24T04:44:21;12.57;;;3.90;;
71637;SDS011;59485;43.542;-5.676;2022-08-24T04:46:46;11.43;;;3.47;;
71637;SDS011;59485;43.542;-5.676;2022-08-24T04:49:12;11.20;;;3.50;;
71637;SDS011;59485;43.542;-5.676;2022-08-24T04:51:38;14.98;;;3.55;;
71637;SDS011;59485;43.542;-5.676;2022-08-24T04:54:03;13.67;;;3.40;;
71637;SDS011;59485;43.542;-5.676;2022-08-24T04:56:31;10.63;;;3.38;;
71637;SDS011;59485;43.542;-5.676;2022-08-24T04:58:57;11.02;;;3.58;;
71637;SDS011;59485;43.542;-5.676;2022-08-24T05:01:24;11.17;;;3.83;;
71637;SDS011;59485;43.542;-5.676;2022-08-24T05:03:51;14.93;;;3.70;;
71637;SDS011;59485;43.542;-5.676;2022-08-24T05:06:19;14.10;;;3.37;;
71637;SDS011;59485;43.542;-5.676;2022-08-24T05:08:46;10.60;;;3.42;;
71637;SDS011;59485;43.542;-5.676;2022-08-24T05:11:13;17.08;;;4.28;;
71637;SDS011;59485;43.542;-5.676;2022-08-24T05:13:41;10.80;;;3.22;;
71637;SDS011;59485;43.542;-5.676;2022-08-24T05:16:08;12.87;;;4.20;;
71637;SDS011;59485;43.542;-5.676;2022-08-24T05:18:36;8.82;;;3.58;;
71637;SDS011;59485;43.542;-5.676;2022-08-24T05:21:04;14.20;;;3.88;;
71637;SDS011;59485;43.542;-5.676;2022-08-24T05:23:32;10.20;;;3.10;;
71637;SDS011;59485;43.542;-5.676;2022-08-24T05:26:08;13.00;;;3.97;;
71637;SDS011;59485;43.542;-5.676;2022-08-24T05:28:37;9.80;;;4.05;;
71637;SDS011;59485;43.542;-5.676;2022-08-24T05:31:15;12.05;;;3.90;;
71637;SDS011;59485;43.542;-5.676;2022-08-24T05:33:42;11.02;;;4.28;;
71637;SDS011;59485;43.542;-5.676;2022-08-24T05:36:19;13.20;;;4.07;;
71637;SDS011;59485;43.542;-5.676;2022-08-24T05:38:48;13.80;;;3.90;;
71637;SDS011;59485;43.542;-5.676;2022-08-24T05:41:15;12.63;;;4.35;;
71637;SDS011;59485;43.542;-5.676;2022-08-24T05:43:42;12.52;;;5.15;;
71637;SDS011;59485;43.542;-5.676;2022-08-24T05:46:08;12.65;;;4.65;;
71637;SDS011;59485;43.542;-5.676;2022-08-24T05:48:33;13.67;;;4.50;;
71637;SDS011;59485;43.542;-5.676;2022-08-24T05:51:01;13.95;;;4.50;;
71637;SDS011;59485;43.542;-5.676;2022-08-24T05:53:27;13.32;;;4.88;;
71637;SDS011;59485;43.542;-5.676;2022-08-24T05:55:52;15.10;;;4.23;;
71637;SDS011;59485;43.542;-5.676;2022-08-24T05:58:18;13.63;;;4.97;;
71637;SDS011;59485;43.542;-5.676;2022-08-24T06:00:44;12.30;;;5.65;;
71637;SDS011;59485;43.542;-5.676;2022-08-24T06:03:13;14.52;;;5.20;;
71637;SDS011;59485;43.542;-5.676;2022-08-24T06:05:40;12.80;;;4.88;;
71637;SDS011;59485;43.542;-5.676;2022-08-24T06:08:09;15.47;;;5.20;;
71637;SDS011;59485;43.542;-5.676;2022-08-24T06:10:39;14.65;;;4.70;;
71637;SDS011;59485;43.542;-5.676;2022-08-24T06:13:07;13.00;;;5.10;;
71637;SDS011;59485;43.542;-5.676;2022-08-24T06:15:33;20.35;;;5.57;;
71637;SDS011;59485;43.542;-5.676;2022-08-24T06:17:59;13.50;;;6.13;;
71637;SDS011;59485;43.542;-5.676;2022-08-24T06:20:25;14.50;;;5.20;;
71637;SDS011;59485;43.542;-5.676;2022-08-24T06:22:51;12.70;;;6.30;;
71637;SDS011;59485;43.542;-5.676;2022-08-24T06:25:16;16.53;;;5.60;;
71637;SDS011;59485;43.542;-5.676;2022-08-24T06:28:01;15.75;;;6.30;;
71637;SDS011;59485;43.542;-5.676;2022-08-24T06:30:26;13.03;;;5.83;;
71637;SDS011;59485;43.542;-5.676;2022-08-24T06:32:52;14.38;;;6.68;;
71637;SDS011;59485;43.542;-5.676;2022-08-24T06:35:17;13.33;;;5.90;;
71637;SDS011;59485;43.542;-5.676;2022-08-24T06:37:43;19.20;;;6.90;;
71637;SDS011;59485;43.542;-5.676;2022-08-24T06:40:09;19.85;;;7.03;;
71637;SDS011;59485;43.542;-5.676;2022-08-24T06:42:34;17.73;;;7.53;;
71637;SDS011;59485;43.542;-5.676;2022-08-24T06:45:00;15.68;;;6.53;;
71637;SDS011;59485;43.542;-5.676;2022-08-24T06:47:27;13.90;;;6.43;;
71637;SDS011;59485;43.542;-5.676;2022-08-24T06:49:53;16.10;;;6.47;;
71637;SDS011;59485;43.542;-5.676;2022-08-24T06:52:18;16.83;;;7.40;;
71637;SDS011;59485;43.542;-5.676;2022-08-24T06:54:44;17.53;;;6.90;;
71637;SDS011;59485;43.542;-5.676;2022-08-24T06:57:09;17.03;;;6.23;;
71637;SDS011;59485;43.542;-5.676;2022-08-24T06:59:35;18.83;;;6.43;;
71637;SDS011;59485;43.542;-5.676;2022-08-24T07:02:00;15.90;;;5.40;;
71637;SDS011;59485;43.542;-5.676;2022-08-24T07:04:26;19.00;;;5.93;;
71637;SDS011;59485;43.542;-5.676;2022-08-24T07:06:52;17.90;;;5.78;;
71637;SDS011;59485;43.542;-5.676;2022-08-24T07:09:19;16.17;;;5.28;;
71637;SDS011;59485;43.542;-5.676;2022-08-24T07:11:48;19.27;;;6.28;;
71637;SDS011;59485;43.542;-5.676;2022-08-24T07:14:15;14.35;;;5.50;;
71637;SDS011;59485;43.542;-5.676;2022-08-24T07:16:40;15.37;;;5.20;;
71637;SDS011;59485;43.542;-5.676;2022-08-24T07:19:08;13.15;;;6.03;;
71637;SDS011;59485;43.542;-5.676;2022-08-24T07:21:34;14.77;;;7.40;;
71637;SDS011;59485;43.542;-5.676;2022-08-24T07:23:59;16.38;;;6.00;;
71637;SDS011;59485;43.542;-5.676;2022-08-24T07:26:28;15.97;;;6.40;;
71637;SDS011;59485;43.542;-5.676;2022-08-24T07:28:56;13.00;;;5.88;;
71637;SDS011;59485;43.542;-5.676;2022-08-24T07:31:29;14.90;;;5.35;;
71637;SDS011;59485;43.542;-5.676;2022-08-24T07:33:55;13.32;;;4.70;;
71637;SDS011;59485;43.542;-5.676;2022-08-24T07:36:20;17.43;;;6.20;;
71637;SDS011;59485;43.542;-5.676;2022-08-24T07:38:46;17.98;;;5.50;;
71637;SDS011;59485;43.542;-5.676;2022-08-24T07:41:12;13.80;;;4.90;;
71637;SDS011;59485;43.542;-5.676;2022-08-24T07:43:40;15.85;;;5.43;;
71637;SDS011;59485;43.542;-5.676;2022-08-24T07:46:06;12.50;;;5.20;;
71637;SDS011;59485;43.542;-5.676;2022-08-24T07:48:32;14.88;;;5.30;;
71637;SDS011;59485;43.542;-5.676;2022-08-24T07:51:05;15.13;;;5.50;;
71637;SDS011;59485;43.542;-5.676;2022-08-24T07:53:32;14.13;;;5.22;;
71637;SDS011;59485;43.542;-5.676;2022-08-24T07:55:58;14.57;;;5.40;;
71637;SDS011;59485;43.542;-5.676;2022-08-24T07:58:23;11.35;;;4.28;;
71637;SDS011;59485;43.542;-5.676;2022-08-24T08:00:49;12.67;;;4.57;;
71637;SDS011;59485;43.542;-5.676;2022-08-24T08:03:14;15.70;;;5.10;;
71637;SDS011;59485;43.542;-5.676;2022-08-24T08:05:40;16.23;;;4.77;;
71637;SDS011;59485;43.542;-5.676;2022-08-24T08:08:06;11.57;;;4.60;;
71637;SDS011;59485;43.542;-5.676;2022-08-24T08:10:32;9.93;;;4.10;;
71637;SDS011;59485;43.542;-5.676;2022-08-24T08:13:00;10.65;;;4.35;;
71637;SDS011;59485;43.542;-5.676;2022-08-24T08:15:30;11.73;;;4.40;;
71637;SDS011;59485;43.542;-5.676;2022-08-24T08:17:56;13.00;;;3.88;;
71637;SDS011;59485;43.542;-5.676;2022-08-24T08:20:22;10.50;;;4.40;;
71637;SDS011;59485;43.542;-5.676;2022-08-24T08:22:48;9.70;;;4.05;;
71637;SDS011;59485;43.542;-5.676;2022-08-24T08:25:33;9.52;;;4.10;;
71637;SDS011;59485;43.542;-5.676;2022-08-24T08:28:01;9.82;;;3.35;;
71637;SDS011;59485;43.542;-5.676;2022-08-24T08:30:28;9.25;;;3.92;;
71637;SDS011;59485;43.542;-5.676;2022-08-24T08:32:54;11.90;;;4.27;;
71637;SDS011;59485;43.542;-5.676;2022-08-24T08:35:19;12.90;;;4.10;;
71637;SDS011;59485;43.542;-5.676;2022-08-24T08:37:45;11.05;;;3.78;;
71637;SDS011;59485;43.542;-5.676;2022-08-24T08:40:14;12.13;;;3.50;;
71637;SDS011;59485;43.542;-5.676;2022-08-24T08:43:08;9.07;;;2.90;;
71637;SDS011;59485;43.542;-5.676;2022-08-24T08:51:21;7.73;;;2.50;;
71637;SDS011;59485;43.542;-5.676;2022-08-24T08:56:34;9.98;;;3.60;;
71637;SDS011;59485;43.542;-5.676;2022-08-24T09:08:01;12.07;;;4.72;;
71637;SDS011;59485;43.542;-5.676;2022-08-24T09:13:29;11.13;;;4.78;;
71637;SDS011;59485;43.542;-5.676;2022-08-24T09:35:08;15.98;;;7.15;;
71637;SDS011;59485;43.542;-5.676;2022-08-24T09:40:38;12.85;;;6.40;;
71637;SDS011;59485;43.542;-5.676;2022-08-24T09:53:57;11.57;;;6.88;;
71637;SDS011;59485;43.542;-5.676;2022-08-24T10:13:51;11.67;;;4.40;;
71637;SDS011;59485;43.542;-5.676;2022-08-24T10:16:45;11.07;;;5.03;;
71637;SDS011;59485;43.542;-5.676;2022-08-24T10:19:39;13.25;;;5.60;;
71637;SDS011;59485;43.542;-5.676;2022-08-24T10:22:21;9.13;;;4.40;;
71637;SDS011;59485;43.542;-5.676;2022-08-24T10:33:28;9.60;;;4.55;;
71637;SDS011;59485;43.542;-5.676;2022-08-24T10:36:11;8.85;;;3.80;;
71637;SDS011;59485;43.542;-5.676;2022-08-24T10:42:08;10.83;;;4.27;;
71637;SDS011;59485;43.542;-5.676;2022-08-24T10:53:55;7.80;;;3.20;;
71637;SDS011;59485;43.542;-5.676;2022-08-24T10:56:29;8.40;;;3.93;;
71637;SDS011;59485;43.542;-5.676;2022-08-24T10:58:57;6.20;;;2.95;;
71637;SDS011;59485;43.542;-5.676;2022-08-24T11:01:32;7.65;;;4.05;;
71637;SDS011;59485;43.542;-5.676;2022-08-24T11:06:29;8.75;;;3.85;;
71637;SDS011;59485;43.542;-5.676;2022-08-24T11:09:13;8.90;;;4.10;;
71637;SDS011;59485;43.542;-5.676;2022-08-24T11:11:42;10.80;;;4.28;;
71637;SDS011;59485;43.542;-5.676;2022-08-24T11:16:42;8.07;;;4.15;;
71637;SDS011;59485;43.542;-5.676;2022-08-24T11:19:11;9.82;;;4.13;;
71637;SDS011;59485;43.542;-5.676;2022-08-24T11:21:54;9.73;;;4.20;;
71637;SDS011;59485;43.542;-5.676;2022-08-24T11:26:51;9.95;;;3.67;;
71637;SDS011;59485;43.542;-5.676;2022-08-24T11:29:21;10.57;;;2.80;;
71637;SDS011;59485;43.542;-5.676;2022-08-24T11:31:51;11.80;;;3.15;;
71637;SDS011;59485;43.542;-5.676;2022-08-24T11:34:36;9.90;;;3.30;;
71637;SDS011;59485;43.542;-5.676;2022-08-24T11:37:03;8.95;;;2.75;;
71637;SDS011;59485;43.542;-5.676;2022-08-24T11:39:35;8.70;;;2.65;;
71637;SDS011;59485;43.542;-5.676;2022-08-24T11:55:20;8.80;;;2.77;;
71637;SDS011;59485;43.542;-5.676;2022-08-24T11:57:56;8.60;;;2.65;;
71637;SDS011;59485;43.542;-5.676;2022-08-24T12:00:32;8.52;;;2.63;;
71637;SDS011;59485;43.542;-5.676;2022-08-24T12:03:11;8.13;;;2.40;;
71637;SDS011;59485;43.542;-5.676;2022-08-24T12:06:03;8.90;;;2.50;;
71637;SDS011;59485;43.542;-5.676;2022-08-24T12:08:37;8.97;;;3.90;;
71637;SDS011;59485;43.542;-5.676;2022-08-24T12:11:14;8.07;;;2.90;;
71637;SDS011;59485;43.542;-5.676;2022-08-24T12:13:47;13.73;;;2.70;;
71637;SDS011;59485;43.542;-5.676;2022-08-24T12:19:11;8.90;;;2.53;;
71637;SDS011;59485;43.542;-5.676;2022-08-24T12:21:38;10.33;;;3.00;;
71637;SDS011;59485;43.542;-5.676;2022-08-24T12:24:14;8.75;;;2.95;;
71637;SDS011;59485;43.542;-5.676;2022-08-24T12:26:51;8.13;;;2.60;;
71637;SDS011;59485;43.542;-5.676;2022-08-24T12:31:59;8.45;;;2.53;;
71637;SDS011;59485;43.542;-5.676;2022-08-24T12:39:38;9.68;;;2.33;;
71637;SDS011;59485;43.542;-5.676;2022-08-24T12:42:18;6.13;;;2.25;;
71637;SDS011;59485;43.542;-5.676;2022-08-24T12:44:52;6.80;;;2.45;;
71637;SDS011;59485;43.542;-5.676;2022-08-24T12:47:32;8.17;;;2.10;;
71637;SDS011;59485;43.542;-5.676;2022-08-24T12:50:05;7.32;;;3.05;;
71637;SDS011;59485;43.542;-5.676;2022-08-24T12:55:32;7.80;;;3.03;;
71637;SDS011;59485;43.542;-5.676;2022-08-24T12:58:05;9.57;;;3.55;;
71637;SDS011;59485;43.542;-5.676;2022-08-24T13:00:35;9.93;;;2.73;;
71637;SDS011;59485;43.542;-5.676;2022-08-24T13:03:07;7.57;;;2.55;;
71637;SDS011;59485;43.542;-5.676;2022-08-24T13:05:55;8.40;;;2.30;;
71637;SDS011;59485;43.542;-5.676;2022-08-24T13:08:35;7.18;;;2.13;;
71637;SDS011;59485;43.542;-5.676;2022-08-24T13:11:09;9.13;;;2.22;;
71637;SDS011;59485;43.542;-5.676;2022-08-24T13:13:41;7.80;;;2.57;;
71637;SDS011;59485;43.542;-5.676;2022-08-24T13:21:51;11.10;;;2.27;;
71637;SDS011;59485;43.542;-5.676;2022-08-24T13:26:58;7.85;;;2.80;;
71637;SDS011;59485;43.542;-5.676;2022-08-24T13:32:42;5.87;;;2.70;;
71637;SDS011;59485;43.542;-5.676;2022-08-24T13:41:08;9.75;;;2.28;;
71637;SDS011;59485;43.542;-5.676;2022-08-24T13:46:47;8.30;;;2.90;;
71637;SDS011;59485;43.542;-5.676;2022-08-24T13:55:14;7.60;;;2.08;;
71637;SDS011;59485;43.542;-5.676;2022-08-24T14:06:36;10.70;;;3.03;;
71637;SDS011;59485;43.542;-5.676;2022-08-24T14:12:22;9.38;;;2.75;;
71637;SDS011;59485;43.542;-5.676;2022-08-24T14:15:00;11.27;;;2.80;;
71637;SDS011;59485;43.542;-5.676;2022-08-24T14:17:48;8.00;;;3.08;;
71637;SDS011;59485;43.542;-5.676;2022-08-24T14:22:59;8.60;;;2.80;;
71637;SDS011;59485;43.542;-5.676;2022-08-24T14:25:45;9.30;;;2.85;;
71637;SDS011;59485;43.542;-5.676;2022-08-24T14:28:26;9.50;;;2.60;;
71637;SDS011;59485;43.542;-5.676;2022-08-24T14:39:53;9.10;;;3.28;;
71637;SDS011;59485;43.542;-5.676;2022-08-24T14:47:41;12.48;;;2.10;;
71637;SDS011;59485;43.542;-5.676;2022-08-24T14:53:16;13.10;;;2.45;;
71637;SDS011;59485;43.542;-5.676;2022-08-24T14:58:45;6.85;;;2.35;;
71637;SDS011;59485;43.542;-5.676;2022-08-24T15:07:20;12.38;;;2.42;;
71637;SDS011;59485;43.542;-5.676;2022-08-24T15:09:48;8.97;;;2.27;;
71637;SDS011;59485;43.542;-5.676;2022-08-24T15:15:03;12.73;;;2.63;;
71637;SDS011;59485;43.542;-5.676;2022-08-24T15:23:25;11.63;;;2.77;;
71637;SDS011;59485;43.542;-5.676;2022-08-24T15:29:16;14.90;;;3.20;;
71637;SDS011;59485;43.542;-5.676;2022-08-24T15:31:54;12.95;;;3.22;;
71637;SDS011;59485;43.542;-5.676;2022-08-24T15:34:40;12.20;;;3.35;;
71637;SDS011;59485;43.542;-5.676;2022-08-24T15:37:10;10.13;;;2.40;;
71637;SDS011;59485;43.542;-5.676;2022-08-24T15:39:40;11.13;;;2.50;;
71637;SDS011;59485;43.542;-5.676;2022-08-24T15:42:10;10.82;;;2.97;;
71637;SDS011;59485;43.542;-5.676;2022-08-24T15:44:39;11.15;;;2.80;;
71637;SDS011;59485;43.542;-5.676;2022-08-24T15:47:49;10.88;;;2.33;;
71637;SDS011;59485;43.542;-5.676;2022-08-24T15:50:02;12.50;;;2.37;;
71637;SDS011;59485;43.542;-5.676;2022-08-24T15:55:14;7.25;;;3.90;;
71637;SDS011;59485;43.542;-5.676;2022-08-24T15:57:51;10.30;;;4.18;;
71637;SDS011;59485;43.542;-5.676;2022-08-24T16:00:22;11.73;;;3.95;;
71637;SDS011;59485;43.542;-5.676;2022-08-24T16:05:48;11.10;;;6.30;;
71637;SDS011;59485;43.542;-5.676;2022-08-24T16:08:16;12.43;;;6.18;;
71637;SDS011;59485;43.542;-5.676;2022-08-24T16:13:08;12.07;;;6.93;;
71637;SDS011;59485;43.542;-5.676;2022-08-24T16:18:12;12.33;;;7.00;;
71637;SDS011;59485;43.542;-5.676;2022-08-24T16:20:39;10.13;;;6.70;;
71637;SDS011;59485;43.542;-5.676;2022-08-24T16:23:06;13.88;;;8.23;;
71637;SDS011;59485;43.542;-5.676;2022-08-24T16:25:36;13.35;;;8.48;;
71637;SDS011;59485;43.542;-5.676;2022-08-24T16:33:37;12.77;;;8.20;;
71637;SDS011;59485;43.542;-5.676;2022-08-24T16:36:26;13.80;;;8.00;;
71637;SDS011;59485;43.542;-5.676;2022-08-24T16:38:50;10.88;;;6.80;;
71637;SDS011;59485;43.542;-5.676;2022-08-24T16:41:17;11.10;;;7.40;;
71637;SDS011;59485;43.542;-5.676;2022-08-24T16:43:45;13.55;;;9.23;;
71637;SDS011;59485;43.542;-5.676;2022-08-24T16:46:12;15.27;;;8.93;;
71637;SDS011;59485;43.542;-5.676;2022-08-24T16:48:42;14.65;;;9.77;;
71637;SDS011;59485;43.542;-5.676;2022-08-24T16:51:10;19.55;;;11.73;;
71637;SDS011;59485;43.542;-5.676;2022-08-24T16:53:36;19.97;;;10.63;;
71637;SDS011;59485;43.542;-5.676;2022-08-24T16:56:01;14.35;;;8.63;;
71637;SDS011;59485;43.542;-5.676;2022-08-24T16:58:32;12.60;;;7.33;;
71637;SDS011;59485;43.542;-5.676;2022-08-24T17:00:59;10.88;;;5.35;;
71637;SDS011;59485;43.542;-5.676;2022-08-24T17:03:26;10.70;;;5.95;;
71637;SDS011;59485;43.542;-5.676;2022-08-24T17:05:52;12.82;;;6.45;;
71637;SDS011;59485;43.542;-5.676;2022-08-24T17:08:19;11.15;;;5.50;;
71637;SDS011;59485;43.542;-5.676;2022-08-24T17:10:45;11.73;;;5.63;;
71637;SDS011;59485;43.542;-5.676;2022-08-24T17:13:11;13.23;;;6.82;;
71637;SDS011;59485;43.542;-5.676;2022-08-24T17:15:36;14.33;;;7.30;;
71637;SDS011;59485;43.542;-5.676;2022-08-24T17:18:04;14.45;;;7.40;;
71637;SDS011;59485;43.542;-5.676;2022-08-24T17:20:32;15.02;;;7.80;;
71637;SDS011;59485;43.542;-5.676;2022-08-24T17:22:58;14.67;;;7.93;;
71637;SDS011;59485;43.542;-5.676;2022-08-24T17:36:38;15.27;;;8.85;;
71637;SDS011;59485;43.542;-5.676;2022-08-24T17:39:05;15.77;;;9.20;;
71637;SDS011;59485;43.542;-5.676;2022-08-24T17:41:31;19.00;;;12.90;;
71637;SDS011;59485;43.542;-5.676;2022-08-24T17:43:58;19.00;;;11.05;;
71637;SDS011;59485;43.542;-5.676;2022-08-24T17:46:25;16.45;;;10.10;;
71637;SDS011;59485;43.542;-5.676;2022-08-24T17:48:53;17.65;;;10.43;;
71637;SDS011;59485;43.542;-5.676;2022-08-24T17:51:20;19.98;;;11.38;;
71637;SDS011;59485;43.542;-5.676;2022-08-24T17:53:46;16.90;;;10.80;;
71637;SDS011;59485;43.542;-5.676;2022-08-24T17:56:11;20.07;;;10.73;;
71637;SDS011;59485;43.542;-5.676;2022-08-24T17:58:39;17.80;;;11.10;;
71637;SDS011;59485;43.542;-5.676;2022-08-24T18:01:25;17.75;;;8.20;;
71637;SDS011;59485;43.542;-5.676;2022-08-24T18:03:54;16.77;;;9.63;;
71637;SDS011;59485;43.542;-5.676;2022-08-24T18:06:20;20.50;;;11.60;;
71637;SDS011;59485;43.542;-5.676;2022-08-24T18:08:48;17.35;;;8.82;;
71637;SDS011;59485;43.542;-5.676;2022-08-24T18:11:14;17.23;;;8.73;;
71637;SDS011;59485;43.542;-5.676;2022-08-24T18:13:40;21.10;;;8.60;;
71637;SDS011;59485;43.542;-5.676;2022-08-24T18:16:17;17.83;;;8.38;;
71637;SDS011;59485;43.542;-5.676;2022-08-24T18:18:45;17.98;;;9.45;;
71637;SDS011;59485;43.542;-5.676;2022-08-24T18:21:14;17.93;;;9.60;;
71637;SDS011;59485;43.542;-5.676;2022-08-24T18:23:40;19.45;;;9.05;;
71637;SDS011;59485;43.542;-5.676;2022-08-24T18:26:05;14.57;;;8.00;;
71637;SDS011;59485;43.542;-5.676;2022-08-24T18:28:33;20.63;;;8.13;;
71637;SDS011;59485;43.542;-5.676;2022-08-24T18:31:00;20.25;;;9.13;;
71637;SDS011;59485;43.542;-5.676;2022-08-24T18:33:25;22.53;;;7.50;;